sensor_id;sensor_type;location;lat;lon;timestamp;P1;durP1;ratioP1;P2;durP2;ratioP2
3543;SDS011;1786;52.870;9.578;2022-12-20T00:01:25;17.00;;;11.90;;
3543;SDS011;1786;52.870;9.578;2022-12-20T00:03:54;16.90;;;11.30;;
3543;SDS011;1786;52.870;9.578;2022-12-20T00:06:22;20.13;;;12.47;;
3543;SDS011;1786;52.870;9.578;2022-12-20T00:08:57;15.60;;;10.33;;
3543;SDS011;1786;52.870;9.578;2022-12-20T00:11:26;14.63;;;10.57;;
3543;SDS011;1786;52.870;9.578;2022-12-20T00:13:54;15.47;;;11.10;;
3543;SDS011;1786;52.870;9.578;2022-12-20T00:16:23;17.47;;;10.30;;
3543;SDS011;1786;52.870;9.578;2022-12-20T00:18:52;13.80;;;9.53;;
3543;SDS011;1786;52.870;9.578;2022-12-20T00:21:20;18.27;;;11.17;;
3543;SDS011;1786;52.870;9.578;2022-12-20T00:23:48;18.97;;;10.90;;
3543;SDS011;1786;52.870;9.578;2022-12-20T00:26:15;17.87;;;10.60;;
3543;SDS011;1786;52.870;9.578;2022-12-20T00:28:44;15.47;;;10.20;;
3543;SDS011;1786;52.870;9.578;2022-12-20T00:31:13;16.57;;;10.80;;
3543;SDS011;1786;52.870;9.578;2022-12-20T00:33:46;14.23;;;10.27;;
3543;SDS011;1786;52.870;9.578;2022-12-20T00:36:15;14.80;;;9.97;;
3543;SDS011;1786;52.870;9.578;2022-12-20T00:38:45;19.17;;;11.13;;
3543;SDS011;1786;52.870;9.578;2022-12-20T00:41:14;18.83;;;11.47;;
3543;SDS011;1786;52.870;9.578;2022-12-20T00:43:43;16.13;;;10.60;;
3543;SDS011;1786;52.870;9.578;2022-12-20T00:46:10;15.00;;;10.40;;
3543;SDS011;1786;52.870;9.578;2022-12-20T00:48:38;16.00;;;10.57;;
3543;SDS011;1786;52.870;9.578;2022-12-20T00:51:07;20.23;;;11.30;;
3543;SDS011;1786;52.870;9.578;2022-12-20T00:53:36;15.63;;;11.70;;
3543;SDS011;1786;52.870;9.578;2022-12-20T00:56:04;15.90;;;10.27;;
3543;SDS011;1786;52.870;9.578;2022-12-20T00:58:32;13.57;;;11.07;;
3543;SDS011;1786;52.870;9.578;2022-12-20T01:01:01;18.03;;;11.30;;
3543;SDS011;1786;52.870;9.578;2022-12-20T01:03:29;15.23;;;10.83;;
3543;SDS011;1786;52.870;9.578;2022-12-20T01:05:56;21.40;;;11.50;;
3543;SDS011;1786;52.870;9.578;2022-12-20T01:08:26;15.37;;;10.83;;
3543;SDS011;1786;52.870;9.578;2022-12-20T01:11:04;18.17;;;10.50;;
3543;SDS011;1786;52.870;9.578;2022-12-20T01:13:40;17.17;;;11.10;;
3543;SDS011;1786;52.870;9.578;2022-12-20T01:18:48;18.63;;;11.00;;
3543;SDS011;1786;52.870;9.578;2022-12-20T01:21:16;14.33;;;10.10;;
3543;SDS011;1786;52.870;9.578;2022-12-20T01:23:44;14.43;;;10.20;;
3543;SDS011;1786;52.870;9.578;2022-12-20T01:26:13;17.03;;;10.70;;
3543;SDS011;1786;52.870;9.578;2022-12-20T01:28:43;15.40;;;10.30;;
3543;SDS011;1786;52.870;9.578;2022-12-20T01:31:13;14.47;;;9.93;;
3543;SDS011;1786;52.870;9.578;2022-12-20T01:33:42;14.87;;;10.80;;
3543;SDS011;1786;52.870;9.578;2022-12-20T01:36:11;17.90;;;11.20;;
3543;SDS011;1786;52.870;9.578;2022-12-20T01:38:39;16.00;;;11.17;;
3543;SDS011;1786;52.870;9.578;2022-12-20T01:41:06;17.37;;;11.00;;
3543;SDS011;1786;52.870;9.578;2022-12-20T01:46:28;16.00;;;11.33;;
3543;SDS011;1786;52.870;9.578;2022-12-20T01:49:05;16.17;;;11.53;;
3543;SDS011;1786;52.870;9.578;2022-12-20T01:51:46;15.23;;;10.80;;
3543;SDS011;1786;52.870;9.578;2022-12-20T01:54:27;13.97;;;10.40;;
3543;SDS011;1786;52.870;9.578;2022-12-20T01:57:01;17.03;;;11.50;;
3543;SDS011;1786;52.870;9.578;2022-12-20T01:59:32;11.70;;;10.47;;
3543;SDS011;1786;52.870;9.578;2022-12-20T02:02:02;13.10;;;9.53;;
3543;SDS011;1786;52.870;9.578;2022-12-20T02:04:33;15.37;;;10.97;;
3543;SDS011;1786;52.870;9.578;2022-12-20T02:07:00;16.97;;;10.43;;
3543;SDS011;1786;52.870;9.578;2022-12-20T02:09:28;16.30;;;11.20;;
3543;SDS011;1786;52.870;9.578;2022-12-20T02:12:02;20.03;;;10.17;;
3543;SDS011;1786;52.870;9.578;2022-12-20T02:21:04;14.83;;;10.17;;
3543;SDS011;1786;52.870;9.578;2022-12-20T02:29:30;15.10;;;9.87;;
3543;SDS011;1786;52.870;9.578;2022-12-20T02:34:31;17.37;;;11.60;;
3543;SDS011;1786;52.870;9.578;2022-12-20T02:36:59;12.70;;;9.90;;
3543;SDS011;1786;52.870;9.578;2022-12-20T02:39:26;16.03;;;10.40;;
3543;SDS011;1786;52.870;9.578;2022-12-20T02:42:00;17.97;;;10.30;;
3543;SDS011;1786;52.870;9.578;2022-12-20T02:44:43;20.43;;;11.07;;
3543;SDS011;1786;52.870;9.578;2022-12-20T02:47:33;14.80;;;11.10;;
3543;SDS011;1786;52.870;9.578;2022-12-20T02:50:05;19.20;;;11.20;;
3543;SDS011;1786;52.870;9.578;2022-12-20T02:52:34;16.80;;;11.20;;
3543;SDS011;1786;52.870;9.578;2022-12-20T02:55:02;18.10;;;10.90;;
3543;SDS011;1786;52.870;9.578;2022-12-20T02:57:38;14.47;;;10.80;;
3543;SDS011;1786;52.870;9.578;2022-12-20T03:00:26;15.70;;;9.57;;
3543;SDS011;1786;52.870;9.578;2022-12-20T03:02:59;19.93;;;11.70;;
3543;SDS011;1786;52.870;9.578;2022-12-20T03:05:46;18.07;;;10.50;;
3543;SDS011;1786;52.870;9.578;2022-12-20T03:08:17;19.73;;;11.07;;
3543;SDS011;1786;52.870;9.578;2022-12-20T03:10:45;17.43;;;11.20;;
3543;SDS011;1786;52.870;9.578;2022-12-20T03:13:13;16.33;;;10.93;;
3543;SDS011;1786;52.870;9.578;2022-12-20T03:15:47;16.60;;;10.17;;
3543;SDS011;1786;52.870;9.578;2022-12-20T03:18:14;13.33;;;10.10;;
3543;SDS011;1786;52.870;9.578;2022-12-20T03:20:41;13.83;;;10.93;;
3543;SDS011;1786;52.870;9.578;2022-12-20T03:23:08;17.87;;;12.00;;
3543;SDS011;1786;52.870;9.578;2022-12-20T03:25:34;20.27;;;10.07;;
3543;SDS011;1786;52.870;9.578;2022-12-20T03:28:02;14.83;;;11.50;;
3543;SDS011;1786;52.870;9.578;2022-12-20T03:30:30;18.80;;;11.77;;
3543;SDS011;1786;52.870;9.578;2022-12-20T03:32:57;17.90;;;11.30;;
3543;SDS011;1786;52.870;9.578;2022-12-20T03:35:23;16.90;;;11.30;;
3543;SDS011;1786;52.870;9.578;2022-12-20T03:37:50;16.53;;;10.60;;
3543;SDS011;1786;52.870;9.578;2022-12-20T03:40:17;17.43;;;9.97;;
3543;SDS011;1786;52.870;9.578;2022-12-20T03:42:43;17.40;;;11.10;;
3543;SDS011;1786;52.870;9.578;2022-12-20T03:45:10;15.57;;;10.73;;
3543;SDS011;1786;52.870;9.578;2022-12-20T03:47:37;15.93;;;11.20;;
3543;SDS011;1786;52.870;9.578;2022-12-20T03:50:05;17.70;;;11.80;;
3543;SDS011;1786;52.870;9.578;2022-12-20T03:52:34;22.43;;;11.20;;
3543;SDS011;1786;52.870;9.578;2022-12-20T03:55:00;15.07;;;10.50;;
3543;SDS011;1786;52.870;9.578;2022-12-20T03:57:45;14.63;;;10.60;;
3543;SDS011;1786;52.870;9.578;2022-12-20T04:00:24;16.37;;;11.50;;
3543;SDS011;1786;52.870;9.578;2022-12-20T04:02:57;18.33;;;11.70;;
3543;SDS011;1786;52.870;9.578;2022-12-20T04:05:25;15.53;;;10.67;;
3543;SDS011;1786;52.870;9.578;2022-12-20T04:07:52;15.27;;;10.03;;
3543;SDS011;1786;52.870;9.578;2022-12-20T04:10:19;16.23;;;10.27;;
3543;SDS011;1786;52.870;9.578;2022-12-20T04:12:46;16.43;;;10.97;;
3543;SDS011;1786;52.870;9.578;2022-12-20T04:15:14;16.50;;;10.20;;
3543;SDS011;1786;52.870;9.578;2022-12-20T04:17:42;18.93;;;11.00;;
3543;SDS011;1786;52.870;9.578;2022-12-20T04:20:12;16.90;;;11.27;;
3543;SDS011;1786;52.870;9.578;2022-12-20T04:22:50;14.30;;;10.63;;
3543;SDS011;1786;52.870;9.578;2022-12-20T04:25:18;15.27;;;10.00;;
3543;SDS011;1786;52.870;9.578;2022-12-20T04:27:46;15.50;;;10.30;;
3543;SDS011;1786;52.870;9.578;2022-12-20T04:30:13;15.10;;;10.80;;
3543;SDS011;1786;52.870;9.578;2022-12-20T04:32:41;19.97;;;12.10;;
3543;SDS011;1786;52.870;9.578;2022-12-20T04:35:08;19.00;;;11.93;;
3543;SDS011;1786;52.870;9.578;2022-12-20T04:37:39;18.90;;;11.10;;
3543;SDS011;1786;52.870;9.578;2022-12-20T04:40:06;15.00;;;10.03;;
3543;SDS011;1786;52.870;9.578;2022-12-20T04:42:42;13.53;;;9.70;;
3543;SDS011;1786;52.870;9.578;2022-12-20T04:45:10;14.47;;;10.00;;
3543;SDS011;1786;52.870;9.578;2022-12-20T04:47:37;15.33;;;10.23;;
3543;SDS011;1786;52.870;9.578;2022-12-20T04:50:05;10.87;;;9.50;;
3543;SDS011;1786;52.870;9.578;2022-12-20T04:52:33;17.30;;;11.80;;
3543;SDS011;1786;52.870;9.578;2022-12-20T04:55:18;19.33;;;10.60;;
3543;SDS011;1786;52.870;9.578;2022-12-20T04:57:45;18.30;;;11.10;;
3543;SDS011;1786;52.870;9.578;2022-12-20T05:00:13;15.73;;;10.90;;
3543;SDS011;1786;52.870;9.578;2022-12-20T05:02:43;17.30;;;10.40;;
3543;SDS011;1786;52.870;9.578;2022-12-20T05:05:13;12.13;;;9.57;;
3543;SDS011;1786;52.870;9.578;2022-12-20T05:07:46;13.27;;;9.70;;
3543;SDS011;1786;52.870;9.578;2022-12-20T05:10:13;18.20;;;11.23;;
3543;SDS011;1786;52.870;9.578;2022-12-20T05:12:41;14.67;;;10.77;;
3543;SDS011;1786;52.870;9.578;2022-12-20T05:15:13;16.10;;;10.00;;
3543;SDS011;1786;52.870;9.578;2022-12-20T05:17:41;14.07;;;9.03;;
3543;SDS011;1786;52.870;9.578;2022-12-20T05:20:10;17.47;;;11.17;;
3543;SDS011;1786;52.870;9.578;2022-12-20T05:22:39;14.77;;;9.57;;
3543;SDS011;1786;52.870;9.578;2022-12-20T05:25:25;14.23;;;9.47;;
3543;SDS011;1786;52.870;9.578;2022-12-20T05:28:13;13.57;;;9.03;;
3543;SDS011;1786;52.870;9.578;2022-12-20T05:30:40;14.10;;;10.13;;
3543;SDS011;1786;52.870;9.578;2022-12-20T05:33:07;16.77;;;9.70;;
3543;SDS011;1786;52.870;9.578;2022-12-20T05:35:34;12.47;;;10.00;;
3543;SDS011;1786;52.870;9.578;2022-12-20T05:38:06;11.30;;;8.63;;
3543;SDS011;1786;52.870;9.578;2022-12-20T05:40:33;15.90;;;10.10;;
3543;SDS011;1786;52.870;9.578;2022-12-20T05:43:01;13.30;;;9.70;;
3543;SDS011;1786;52.870;9.578;2022-12-20T05:45:35;11.63;;;9.93;;
3543;SDS011;1786;52.870;9.578;2022-12-20T05:48:08;12.47;;;10.23;;
3543;SDS011;1786;52.870;9.578;2022-12-20T05:50:38;12.53;;;9.27;;
3543;SDS011;1786;52.870;9.578;2022-12-20T05:53:24;18.50;;;10.47;;
3543;SDS011;1786;52.870;9.578;2022-12-20T05:55:54;10.57;;;9.10;;
3543;SDS011;1786;52.870;9.578;2022-12-20T05:58:28;13.37;;;8.47;;
3543;SDS011;1786;52.870;9.578;2022-12-20T06:01:02;10.70;;;9.23;;
3543;SDS011;1786;52.870;9.578;2022-12-20T06:03:35;10.47;;;8.63;;
3543;SDS011;1786;52.870;9.578;2022-12-20T06:06:10;13.63;;;9.73;;
3543;SDS011;1786;52.870;9.578;2022-12-20T06:08:44;11.47;;;9.07;;
3543;SDS011;1786;52.870;9.578;2022-12-20T06:11:17;12.77;;;9.93;;
3543;SDS011;1786;52.870;9.578;2022-12-20T06:13:49;13.90;;;9.17;;
3543;SDS011;1786;52.870;9.578;2022-12-20T06:16:16;10.67;;;8.90;;
3543;SDS011;1786;52.870;9.578;2022-12-20T06:18:46;12.47;;;9.40;;
3543;SDS011;1786;52.870;9.578;2022-12-20T06:21:14;13.00;;;9.03;;
3543;SDS011;1786;52.870;9.578;2022-12-20T06:23:41;12.87;;;9.50;;
3543;SDS011;1786;52.870;9.578;2022-12-20T06:26:11;11.97;;;9.47;;
3543;SDS011;1786;52.870;9.578;2022-12-20T06:28:45;15.90;;;10.13;;
3543;SDS011;1786;52.870;9.578;2022-12-20T06:31:22;16.90;;;9.50;;
3543;SDS011;1786;52.870;9.578;2022-12-20T06:33:52;12.83;;;9.97;;
3543;SDS011;1786;52.870;9.578;2022-12-20T06:36:21;12.20;;;9.50;;
3543;SDS011;1786;52.870;9.578;2022-12-20T06:38:51;18.67;;;10.30;;
3543;SDS011;1786;52.870;9.578;2022-12-20T06:41:40;14.27;;;10.20;;
3543;SDS011;1786;52.870;9.578;2022-12-20T06:44:07;11.70;;;10.13;;
3543;SDS011;1786;52.870;9.578;2022-12-20T06:46:34;15.43;;;10.10;;
3543;SDS011;1786;52.870;9.578;2022-12-20T06:49:02;17.90;;;11.70;;
3543;SDS011;1786;52.870;9.578;2022-12-20T06:51:29;15.10;;;10.77;;
3543;SDS011;1786;52.870;9.578;2022-12-20T06:53:56;12.13;;;9.47;;
3543;SDS011;1786;52.870;9.578;2022-12-20T06:56:24;12.90;;;8.80;;
3543;SDS011;1786;52.870;9.578;2022-12-20T06:58:51;12.53;;;9.80;;
3543;SDS011;1786;52.870;9.578;2022-12-20T07:01:18;15.37;;;10.47;;
3543;SDS011;1786;52.870;9.578;2022-12-20T07:03:45;17.73;;;10.70;;
3543;SDS011;1786;52.870;9.578;2022-12-20T07:06:12;14.20;;;9.60;;
3543;SDS011;1786;52.870;9.578;2022-12-20T07:08:39;16.17;;;10.00;;
3543;SDS011;1786;52.870;9.578;2022-12-20T07:11:06;13.77;;;9.87;;
3543;SDS011;1786;52.870;9.578;2022-12-20T07:13:34;20.53;;;12.00;;
3543;SDS011;1786;52.870;9.578;2022-12-20T07:16:01;15.53;;;10.97;;
3543;SDS011;1786;52.870;9.578;2022-12-20T07:18:29;17.10;;;11.13;;
3543;SDS011;1786;52.870;9.578;2022-12-20T07:20:59;17.67;;;10.57;;
3543;SDS011;1786;52.870;9.578;2022-12-20T07:23:27;15.20;;;11.00;;
3543;SDS011;1786;52.870;9.578;2022-12-20T07:25:54;15.17;;;11.07;;
3543;SDS011;1786;52.870;9.578;2022-12-20T07:28:22;15.30;;;11.80;;
3543;SDS011;1786;52.870;9.578;2022-12-20T07:30:51;15.53;;;11.67;;
3543;SDS011;1786;52.870;9.578;2022-12-20T07:33:18;15.00;;;11.80;;
3543;SDS011;1786;52.870;9.578;2022-12-20T07:35:46;20.00;;;11.70;;
3543;SDS011;1786;52.870;9.578;2022-12-20T07:38:20;16.53;;;12.10;;
3543;SDS011;1786;52.870;9.578;2022-12-20T07:40:47;16.53;;;11.70;;
3543;SDS011;1786;52.870;9.578;2022-12-20T07:43:14;16.97;;;12.50;;
3543;SDS011;1786;52.870;9.578;2022-12-20T07:45:40;19.70;;;12.30;;
3543;SDS011;1786;52.870;9.578;2022-12-20T07:48:07;16.60;;;11.43;;
3543;SDS011;1786;52.870;9.578;2022-12-20T07:50:40;20.73;;;12.70;;
3543;SDS011;1786;52.870;9.578;2022-12-20T07:53:07;19.63;;;12.50;;
3543;SDS011;1786;52.870;9.578;2022-12-20T07:55:35;16.77;;;10.70;;
3543;SDS011;1786;52.870;9.578;2022-12-20T07:58:05;18.70;;;11.60;;
3543;SDS011;1786;52.870;9.578;2022-12-20T08:00:35;18.40;;;10.83;;
3543;SDS011;1786;52.870;9.578;2022-12-20T08:03:12;14.90;;;11.20;;
3543;SDS011;1786;52.870;9.578;2022-12-20T08:05:45;17.13;;;11.40;;
3543;SDS011;1786;52.870;9.578;2022-12-20T08:08:15;18.43;;;12.50;;
3543;SDS011;1786;52.870;9.578;2022-12-20T08:10:42;16.40;;;11.33;;
3543;SDS011;1786;52.870;9.578;2022-12-20T08:13:09;17.63;;;12.27;;
3543;SDS011;1786;52.870;9.578;2022-12-20T08:15:36;14.87;;;11.67;;
3543;SDS011;1786;52.870;9.578;2022-12-20T08:18:03;13.30;;;10.13;;
3543;SDS011;1786;52.870;9.578;2022-12-20T08:20:31;18.10;;;11.03;;
3543;SDS011;1786;52.870;9.578;2022-12-20T08:22:58;17.43;;;11.37;;
3543;SDS011;1786;52.870;9.578;2022-12-20T08:25:25;17.77;;;11.60;;
3543;SDS011;1786;52.870;9.578;2022-12-20T08:27:52;12.97;;;10.60;;
3543;SDS011;1786;52.870;9.578;2022-12-20T08:30:19;15.67;;;11.17;;
3543;SDS011;1786;52.870;9.578;2022-12-20T08:32:45;15.53;;;10.43;;
3543;SDS011;1786;52.870;9.578;2022-12-20T08:35:12;16.53;;;10.53;;
3543;SDS011;1786;52.870;9.578;2022-12-20T08:37:39;15.30;;;10.20;;
3543;SDS011;1786;52.870;9.578;2022-12-20T08:40:06;11.83;;;10.20;;
3543;SDS011;1786;52.870;9.578;2022-12-20T08:42:34;15.47;;;10.50;;
3543;SDS011;1786;52.870;9.578;2022-12-20T08:45:00;11.97;;;9.67;;
3543;SDS011;1786;52.870;9.578;2022-12-20T08:47:28;13.80;;;10.00;;
3543;SDS011;1786;52.870;9.578;2022-12-20T08:49:55;16.23;;;10.97;;
3543;SDS011;1786;52.870;9.578;2022-12-20T08:52:22;14.70;;;10.67;;
3543;SDS011;1786;52.870;9.578;2022-12-20T08:54:49;12.23;;;10.00;;
3543;SDS011;1786;52.870;9.578;2022-12-20T08:57:15;13.07;;;10.10;;
3543;SDS011;1786;52.870;9.578;2022-12-20T08:59:42;19.33;;;10.17;;
3543;SDS011;1786;52.870;9.578;2022-12-20T09:02:09;13.23;;;10.30;;
3543;SDS011;1786;52.870;9.578;2022-12-20T09:04:36;14.97;;;11.20;;
3543;SDS011;1786;52.870;9.578;2022-12-20T09:07:03;13.87;;;10.17;;
3543;SDS011;1786;52.870;9.578;2022-12-20T09:09:30;10.73;;;9.63;;
3543;SDS011;1786;52.870;9.578;2022-12-20T09:11:57;12.10;;;8.37;;
3543;SDS011;1786;52.870;9.578;2022-12-20T09:14:23;13.03;;;9.50;;
3543;SDS011;1786;52.870;9.578;2022-12-20T09:16:50;17.57;;;10.67;;
3543;SDS011;1786;52.870;9.578;2022-12-20T09:19:17;11.93;;;9.50;;
3543;SDS011;1786;52.870;9.578;2022-12-20T09:21:43;12.07;;;9.90;;
3543;SDS011;1786;52.870;9.578;2022-12-20T09:24:10;13.40;;;9.37;;
3543;SDS011;1786;52.870;9.578;2022-12-20T09:26:37;12.33;;;8.67;;
3543;SDS011;1786;52.870;9.578;2022-12-20T09:29:07;11.03;;;8.90;;
3543;SDS011;1786;52.870;9.578;2022-12-20T09:31:33;13.30;;;10.40;;
3543;SDS011;1786;52.870;9.578;2022-12-20T09:34:00;13.00;;;8.53;;
3543;SDS011;1786;52.870;9.578;2022-12-20T09:36:27;13.63;;;9.20;;
3543;SDS011;1786;52.870;9.578;2022-12-20T09:38:55;13.13;;;9.87;;
3543;SDS011;1786;52.870;9.578;2022-12-20T09:41:24;11.97;;;8.13;;
3543;SDS011;1786;52.870;9.578;2022-12-20T09:43:59;11.93;;;9.13;;
3543;SDS011;1786;52.870;9.578;2022-12-20T09:46:29;11.70;;;10.37;;
3543;SDS011;1786;52.870;9.578;2022-12-20T09:48:56;15.63;;;9.47;;
3543;SDS011;1786;52.870;9.578;2022-12-20T09:54:35;10.07;;;8.43;;
3543;SDS011;1786;52.870;9.578;2022-12-20T09:59:49;12.80;;;8.47;;
3543;SDS011;1786;52.870;9.578;2022-12-20T10:02:20;10.93;;;8.83;;
3543;SDS011;1786;52.870;9.578;2022-12-20T10:05:32;10.33;;;9.23;;
3543;SDS011;1786;52.870;9.578;2022-12-20T10:11:07;9.63;;;8.40;;
3543;SDS011;1786;52.870;9.578;2022-12-20T10:16:34;20.37;;;9.07;;
3543;SDS011;1786;52.870;9.578;2022-12-20T10:19:12;9.60;;;8.20;;
3543;SDS011;1786;52.870;9.578;2022-12-20T10:22:25;11.90;;;8.00;;
3543;SDS011;1786;52.870;9.578;2022-12-20T10:25:19;14.70;;;7.93;;
3543;SDS011;1786;52.870;9.578;2022-12-20T10:27:50;10.77;;;7.97;;
3543;SDS011;1786;52.870;9.578;2022-12-20T10:30:23;9.00;;;7.53;;
3543;SDS011;1786;52.870;9.578;2022-12-20T10:32:52;12.20;;;8.50;;
3543;SDS011;1786;52.870;9.578;2022-12-20T10:35:21;13.63;;;7.57;;
3543;SDS011;1786;52.870;9.578;2022-12-20T10:38:03;8.83;;;6.53;;
3543;SDS011;1786;52.870;9.578;2022-12-20T10:43:26;12.57;;;7.73;;
3543;SDS011;1786;52.870;9.578;2022-12-20T10:46:00;10.50;;;7.60;;
3543;SDS011;1786;52.870;9.578;2022-12-20T10:48:31;8.30;;;7.50;;
3543;SDS011;1786;52.870;9.578;2022-12-20T10:51:26;8.07;;;7.27;;
3543;SDS011;1786;52.870;9.578;2022-12-20T11:01:32;11.40;;;8.03;;
3543;SDS011;1786;52.870;9.578;2022-12-20T11:04:06;8.63;;;7.50;;
3543;SDS011;1786;52.870;9.578;2022-12-20T11:06:48;10.57;;;7.63;;
3543;SDS011;1786;52.870;9.578;2022-12-20T11:11:57;7.57;;;5.93;;
3543;SDS011;1786;52.870;9.578;2022-12-20T11:14:24;8.20;;;7.30;;
3543;SDS011;1786;52.870;9.578;2022-12-20T11:16:54;10.13;;;7.10;;
3543;SDS011;1786;52.870;9.578;2022-12-20T11:19:44;11.67;;;7.70;;
3543;SDS011;1786;52.870;9.578;2022-12-20T11:25:04;9.47;;;6.87;;
3543;SDS011;1786;52.870;9.578;2022-12-20T11:33:30;9.10;;;7.40;;
3543;SDS011;1786;52.870;9.578;2022-12-20T11:36:09;13.33;;;6.90;;
3543;SDS011;1786;52.870;9.578;2022-12-20T11:39:10;9.43;;;7.73;;
3543;SDS011;1786;52.870;9.578;2022-12-20T11:41:49;12.07;;;8.17;;
3543;SDS011;1786;52.870;9.578;2022-12-20T11:47:07;9.30;;;7.10;;
3543;SDS011;1786;52.870;9.578;2022-12-20T11:50:50;13.30;;;7.00;;
3543;SDS011;1786;52.870;9.578;2022-12-20T11:52:59;10.80;;;7.00;;
3543;SDS011;1786;52.870;9.578;2022-12-20T11:55:38;12.27;;;8.73;;
3543;SDS011;1786;52.870;9.578;2022-12-20T12:00:46;10.67;;;7.70;;
3543;SDS011;1786;52.870;9.578;2022-12-20T12:06:04;13.50;;;7.90;;
3543;SDS011;1786;52.870;9.578;2022-12-20T12:08:49;9.50;;;7.90;;
3543;SDS011;1786;52.870;9.578;2022-12-20T12:11:21;14.27;;;8.20;;
3543;SDS011;1786;52.870;9.578;2022-12-20T12:14:24;7.90;;;6.97;;
3543;SDS011;1786;52.870;9.578;2022-12-20T12:16:56;9.93;;;6.90;;
3543;SDS011;1786;52.870;9.578;2022-12-20T12:19:31;8.47;;;6.57;;
3543;SDS011;1786;52.870;9.578;2022-12-20T12:22:01;6.90;;;5.70;;
3543;SDS011;1786;52.870;9.578;2022-12-20T12:24:35;9.37;;;6.67;;
3543;SDS011;1786;52.870;9.578;2022-12-20T12:27:11;9.37;;;6.70;;
3543;SDS011;1786;52.870;9.578;2022-12-20T12:29:46;9.20;;;5.83;;
3543;SDS011;1786;52.870;9.578;2022-12-20T12:32:18;8.53;;;5.83;;
3543;SDS011;1786;52.870;9.578;2022-12-20T12:35:07;10.50;;;6.60;;
3543;SDS011;1786;52.870;9.578;2022-12-20T12:43:17;11.53;;;6.70;;
3543;SDS011;1786;52.870;9.578;2022-12-20T12:46:09;7.47;;;6.40;;
3543;SDS011;1786;52.870;9.578;2022-12-20T12:48:44;6.67;;;5.43;;
3543;SDS011;1786;52.870;9.578;2022-12-20T12:51:20;8.60;;;6.57;;
3543;SDS011;1786;52.870;9.578;2022-12-20T12:53:52;19.73;;;8.60;;
3543;SDS011;1786;52.870;9.578;2022-12-20T13:01:48;7.37;;;6.20;;
3543;SDS011;1786;52.870;9.578;2022-12-20T13:20:22;8.20;;;5.20;;
3543;SDS011;1786;52.870;9.578;2022-12-20T13:25:34;5.83;;;5.30;;
3543;SDS011;1786;52.870;9.578;2022-12-20T13:28:41;5.93;;;5.50;;
3543;SDS011;1786;52.870;9.578;2022-12-20T13:33:42;7.80;;;6.03;;
3543;SDS011;1786;52.870;9.578;2022-12-20T13:44:09;6.43;;;5.60;;
3543;SDS011;1786;52.870;9.578;2022-12-20T13:49:38;6.97;;;5.27;;
3543;SDS011;1786;52.870;9.578;2022-12-20T13:54:46;6.00;;;4.90;;
3543;SDS011;1786;52.870;9.578;2022-12-20T13:57:16;6.13;;;5.00;;
3543;SDS011;1786;52.870;9.578;2022-12-20T13:59:47;5.90;;;5.37;;
3543;SDS011;1786;52.870;9.578;2022-12-20T14:02:32;6.63;;;4.90;;
3543;SDS011;1786;52.870;9.578;2022-12-20T14:05:04;4.80;;;4.30;;
3543;SDS011;1786;52.870;9.578;2022-12-20T14:07:38;6.20;;;3.93;;
3543;SDS011;1786;52.870;9.578;2022-12-20T14:10:15;4.23;;;3.93;;
3543;SDS011;1786;52.870;9.578;2022-12-20T14:12:49;6.57;;;4.07;;
3543;SDS011;1786;52.870;9.578;2022-12-20T14:15:24;5.37;;;4.07;;
3543;SDS011;1786;52.870;9.578;2022-12-20T14:17:51;7.30;;;5.37;;
3543;SDS011;1786;52.870;9.578;2022-12-20T14:20:22;7.10;;;5.13;;
3543;SDS011;1786;52.870;9.578;2022-12-20T14:25:34;6.23;;;5.60;;
3543;SDS011;1786;52.870;9.578;2022-12-20T14:28:12;6.00;;;4.50;;
3543;SDS011;1786;52.870;9.578;2022-12-20T14:30:52;5.43;;;4.93;;
3543;SDS011;1786;52.870;9.578;2022-12-20T14:33:25;6.10;;;4.93;;
3543;SDS011;1786;52.870;9.578;2022-12-20T14:35:56;8.30;;;4.90;;
3543;SDS011;1786;52.870;9.578;2022-12-20T14:38:27;5.73;;;5.20;;
3543;SDS011;1786;52.870;9.578;2022-12-20T14:40:56;6.53;;;4.47;;
3543;SDS011;1786;52.870;9.578;2022-12-20T14:43:27;4.80;;;4.30;;
3543;SDS011;1786;52.870;9.578;2022-12-20T14:46:07;5.37;;;4.87;;
3543;SDS011;1786;52.870;9.578;2022-12-20T14:48:45;6.70;;;5.73;;
3543;SDS011;1786;52.870;9.578;2022-12-20T14:51:19;5.33;;;4.80;;
3543;SDS011;1786;52.870;9.578;2022-12-20T14:53:47;5.00;;;4.57;;
3543;SDS011;1786;52.870;9.578;2022-12-20T14:56:17;7.30;;;5.87;;
3543;SDS011;1786;52.870;9.578;2022-12-20T15:01:42;6.23;;;5.03;;
3543;SDS011;1786;52.870;9.578;2022-12-20T15:04:24;5.23;;;4.73;;
3543;SDS011;1786;52.870;9.578;2022-12-20T15:06:57;5.83;;;4.63;;
3543;SDS011;1786;52.870;9.578;2022-12-20T15:09:26;6.40;;;5.73;;
3543;SDS011;1786;52.870;9.578;2022-12-20T15:11:54;8.37;;;5.40;;
3543;SDS011;1786;52.870;9.578;2022-12-20T15:14:35;6.03;;;4.83;;
3543;SDS011;1786;52.870;9.578;2022-12-20T15:17:09;5.20;;;4.70;;
3543;SDS011;1786;52.870;9.578;2022-12-20T15:19:38;7.30;;;5.73;;
3543;SDS011;1786;52.870;9.578;2022-12-20T15:22:12;6.00;;;5.00;;
3543;SDS011;1786;52.870;9.578;2022-12-20T15:24:41;14.93;;;4.70;;
3543;SDS011;1786;52.870;9.578;2022-12-20T15:27:15;4.67;;;4.37;;
3543;SDS011;1786;52.870;9.578;2022-12-20T15:29:41;9.00;;;5.87;;
3543;SDS011;1786;52.870;9.578;2022-12-20T15:35:20;7.20;;;5.93;;
3543;SDS011;1786;52.870;9.578;2022-12-20T15:37:46;4.47;;;3.97;;
3543;SDS011;1786;52.870;9.578;2022-12-20T15:40:13;7.10;;;4.93;;
3543;SDS011;1786;52.870;9.578;2022-12-20T15:42:41;4.73;;;4.23;;
3543;SDS011;1786;52.870;9.578;2022-12-20T15:45:12;5.40;;;4.80;;
3543;SDS011;1786;52.870;9.578;2022-12-20T15:47:39;4.67;;;4.27;;
3543;SDS011;1786;52.870;9.578;2022-12-20T15:50:08;5.43;;;4.47;;
3543;SDS011;1786;52.870;9.578;2022-12-20T15:52:36;4.87;;;4.40;;
3543;SDS011;1786;52.870;9.578;2022-12-20T15:55:03;4.90;;;4.50;;
3543;SDS011;1786;52.870;9.578;2022-12-20T15:57:29;4.60;;;4.13;;
3543;SDS011;1786;52.870;9.578;2022-12-20T15:59:56;4.97;;;4.07;;
3543;SDS011;1786;52.870;9.578;2022-12-20T16:02:36;6.33;;;4.83;;
3543;SDS011;1786;52.870;9.578;2022-12-20T16:05:05;5.90;;;5.33;;
3543;SDS011;1786;52.870;9.578;2022-12-20T16:07:31;5.27;;;4.77;;
3543;SDS011;1786;52.870;9.578;2022-12-20T16:09:58;5.50;;;5.00;;
3543;SDS011;1786;52.870;9.578;2022-12-20T16:12:29;4.67;;;4.37;;
3543;SDS011;1786;52.870;9.578;2022-12-20T16:14:59;7.33;;;5.00;;
3543;SDS011;1786;52.870;9.578;2022-12-20T16:17:26;6.00;;;5.43;;
3543;SDS011;1786;52.870;9.578;2022-12-20T16:19:52;6.20;;;5.70;;
3543;SDS011;1786;52.870;9.578;2022-12-20T16:22:21;10.23;;;5.80;;
3543;SDS011;1786;52.870;9.578;2022-12-20T16:24:48;7.80;;;6.43;;
3543;SDS011;1786;52.870;9.578;2022-12-20T16:27:16;6.50;;;5.90;;
3543;SDS011;1786;52.870;9.578;2022-12-20T16:29:42;8.27;;;5.80;;
3543;SDS011;1786;52.870;9.578;2022-12-20T16:32:14;10.90;;;6.20;;
3543;SDS011;1786;52.870;9.578;2022-12-20T16:34:43;6.47;;;5.97;;
3543;SDS011;1786;52.870;9.578;2022-12-20T16:37:11;6.33;;;5.70;;
3543;SDS011;1786;52.870;9.578;2022-12-20T16:39:38;9.97;;;7.43;;
3543;SDS011;1786;52.870;9.578;2022-12-20T16:42:10;8.70;;;6.70;;
3543;SDS011;1786;52.870;9.578;2022-12-20T16:44:39;6.27;;;5.77;;
3543;SDS011;1786;52.870;9.578;2022-12-20T16:47:08;7.00;;;6.03;;
3543;SDS011;1786;52.870;9.578;2022-12-20T16:49:35;7.33;;;6.27;;
3543;SDS011;1786;52.870;9.578;2022-12-20T16:52:03;9.47;;;7.03;;
3543;SDS011;1786;52.870;9.578;2022-12-20T16:54:32;6.80;;;5.57;;
3543;SDS011;1786;52.870;9.578;2022-12-20T16:56:59;7.63;;;6.17;;
3543;SDS011;1786;52.870;9.578;2022-12-20T16:59:26;9.37;;;6.97;;
3543;SDS011;1786;52.870;9.578;2022-12-20T17:01:53;7.07;;;6.40;;
3543;SDS011;1786;52.870;9.578;2022-12-20T17:04:23;8.87;;;6.33;;
3543;SDS011;1786;52.870;9.578;2022-12-20T17:06:49;8.30;;;7.17;;
3543;SDS011;1786;52.870;9.578;2022-12-20T17:09:16;13.20;;;7.20;;
3543;SDS011;1786;52.870;9.578;2022-12-20T17:11:43;10.50;;;6.80;;
3543;SDS011;1786;52.870;9.578;2022-12-20T17:14:11;10.57;;;6.63;;
3543;SDS011;1786;52.870;9.578;2022-12-20T17:16:39;10.37;;;7.27;;
3543;SDS011;1786;52.870;9.578;2022-12-20T17:19:07;13.90;;;6.53;;